Time;durP1;ratioP1;P1;durP2;ratioP2;P2;SDS_P1;SDS_P2;PMS_P1;PMS_P2;Temp;Humidity;BMP_temperature;BMP_pressure;BME280_temperature;BME280_humidity;BME280_pressure;Samples;Min_cycle;Max_cycle;Signal;HPM_P1;HPM_P2
2023/01/29 00:02:08;;;;;;;11.63;6.18;;;0.80;99.90;;;;;;4986933;28;20038;-79
2023/01/29 00:04:33;;;;;;;10.00;5.13;;;0.70;99.90;;;;;;5003524;28;20034;-76
2023/01/29 00:06:59;;;;;;;11.20;5.78;;;0.80;99.90;;;;;;5009697;28;20475;-80
2023/01/29 00:09:26;;;;;;;11.02;5.88;;;0.80;99.90;;;;;;5006367;28;20443;-79
2023/01/29 00:11:52;;;;;;;9.52;5.28;;;0.70;99.90;;;;;;5008134;28;20033;-79
2023/01/29 00:14:18;;;;;;;12.20;5.95;;;0.70;99.90;;;;;;5007291;28;20419;-79
2023/01/29 00:16:43;;;;;;;11.77;5.68;;;0.70;99.90;;;;;;5002595;28;20084;-78
2023/01/29 00:19:09;;;;;;;11.05;5.68;;;0.70;99.90;;;;;;5001269;28;20490;-80
2023/01/29 00:21:35;;;;;;;9.98;5.50;;;0.70;99.90;;;;;;5005723;28;20360;-79
2023/01/29 00:24:01;;;;;;;8.32;4.45;;;0.80;99.90;;;;;;4997352;28;20049;-80
2023/01/29 00:26:27;;;;;;;9.05;5.15;;;0.80;99.90;;;;;;4991994;28;20113;-80
2023/01/29 00:28:53;;;;;;;7.88;4.90;;;0.80;99.90;;;;;;4998895;28;20505;-80
2023/01/29 00:31:22;;;;;;;8.48;4.63;;;0.80;99.90;;;;;;4998828;28;20051;-80
2023/01/29 00:33:48;;;;;;;9.77;5.20;;;0.80;99.90;;;;;;4991964;28;20490;-79
2023/01/29 00:36:16;;;;;;;8.55;4.80;;;0.70;99.90;;;;;;4998883;28;20379;-80
2023/01/29 00:38:43;;;;;;;10.93;5.88;;;0.70;99.90;;;;;;5003896;28;20920;-79
2023/01/29 00:46:43;;;;;;;8.68;4.53;;;0.70;99.90;;;;;;4996779;28;20483;-79
2023/01/29 00:49:10;;;;;;;7.70;4.43;;;0.70;99.90;;;;;;5005924;28;20131;-78
2023/01/29 00:51:37;;;;;;;8.68;4.28;;;0.70;99.90;;;;;;5000294;28;20113;-79
2023/01/29 00:54:03;;;;;;;8.02;3.90;;;0.80;99.90;;;;;;5004299;28;20038;-79
2023/01/29 00:56:29;;;;;;;8.65;4.43;;;0.70;99.90;;;;;;5005778;28;20814;-79
2023/01/29 00:58:55;;;;;;;8.43;4.57;;;0.70;99.90;;;;;;5007559;28;20482;-79
2023/01/29 01:04:07;;;;;;;9.52;5.07;;;0.70;99.90;;;;;;4997803;28;20026;-79
2023/01/29 01:06:39;;;;;;;10.73;5.40;;;0.70;99.90;;;;;;4984043;28;20041;-79
2023/01/29 01:11:51;;;;;;;8.63;4.28;;;0.70;99.90;;;;;;4999370;28;20030;-79
2023/01/29 01:14:20;;;;;;;8.68;4.93;;;0.70;99.90;;;;;;4996158;28;20043;-79
2023/01/29 01:16:47;;;;;;;8.48;4.10;;;0.60;99.90;;;;;;4995670;28;20026;-79
2023/01/29 01:19:14;;;;;;;9.35;5.15;;;0.60;99.90;;;;;;5001340;28;20938;-78
2023/01/29 01:21:44;;;;;;;9.82;5.47;;;0.70;99.90;;;;;;4991027;28;20041;-79
2023/01/29 01:24:13;;;;;;;9.52;5.22;;;0.60;99.90;;;;;;4983465;28;20041;-79
2023/01/29 01:26:39;;;;;;;10.15;6.47;;;0.70;99.90;;;;;;5001286;28;20038;-79
2023/01/29 01:29:05;;;;;;;11.68;6.03;;;0.70;99.90;;;;;;5001907;28;20037;-79
2023/01/29 01:31:31;;;;;;;10.68;6.05;;;0.60;99.90;;;;;;5006243;28;20034;-78
2023/01/29 01:33:56;;;;;;;9.15;4.72;;;0.70;99.90;;;;;;4998793;28;20030;-79
2023/01/29 01:36:22;;;;;;;12.35;6.32;;;0.70;99.90;;;;;;5000399;28;20032;-79
2023/01/29 01:38:48;;;;;;;11.85;7.05;;;0.60;99.90;;;;;;5001936;28;20038;-78
2023/01/29 01:41:17;;;;;;;10.35;6.35;;;0.70;99.90;;;;;;4998655;28;20026;-79
2023/01/29 01:43:58;;;;;;;9.43;5.25;;;0.60;99.90;;;;;;4988066;28;20046;-79
2023/01/29 01:46:28;;;;;;;9.38;4.75;;;0.60;99.90;;;;;;4996749;28;20042;-78
2023/01/29 01:49:09;;;;;;;11.80;6.35;;;0.60;99.90;;;;;;4996370;28;20068;-79
2023/01/29 01:51:39;;;;;;;10.00;4.63;;;0.60;99.90;;;;;;4999744;28;20026;-79
2023/01/29 01:54:09;;;;;;;10.60;5.57;;;0.60;99.90;;;;;;5012919;28;20053;-79
2023/01/29 01:56:40;;;;;;;;;;;0.60;99.90;;;;;;5001627;28;20058;-79
2023/01/29 01:59:10;;;;;;;10.27;4.82;;;0.60;99.90;;;;;;5011558;28;19910;-80
2023/01/29 02:01:39;;;;;;;8.95;4.28;;;0.60;99.90;;;;;;4998581;28;20687;-79
2023/01/29 02:09:45;;;;;;;9.70;4.60;;;0.50;99.90;;;;;;4998721;28;20085;-79
2023/01/29 02:12:14;;;;;;;11.35;5.53;;;0.50;99.90;;;;;;4979753;28;20085;-78
2023/01/29 02:14:41;;;;;;;9.27;4.78;;;0.40;99.90;;;;;;5002700;28;20044;-79
2023/01/29 02:17:09;;;;;;;12.93;5.63;;;0.50;99.90;;;;;;5003451;28;20085;-79
2023/01/29 02:19:47;;;;;;;10.18;5.28;;;0.50;99.90;;;;;;4996941;28;20113;-79
2023/01/29 02:23:00;;;;;;;9.30;5.20;;;0.50;99.90;;;;;;4996768;28;20041;-78
2023/01/29 02:26:03;;;;;;;9.20;4.53;;;0.50;99.90;;;;;;4968272;28;20042;-79
2023/01/29 02:29:21;;;;;;;9.60;5.15;;;0.50;99.90;;;;;;5002852;28;20453;-79
2023/01/29 02:32:13;;;;;;;9.13;4.50;;;0.50;99.90;;;;;;4996012;28;20037;-79
2023/01/29 02:38:05;;;;;;;10.10;4.90;;;0.50;99.90;;;;;;4985461;28;20034;-79
2023/01/29 02:40:45;;;;;;;10.07;5.10;;;0.50;99.90;;;;;;4984342;28;20126;-79
2023/01/29 02:43:36;;;;;;;10.95;5.72;;;0.50;99.90;;;;;;4995806;28;20030;-79
2023/01/29 02:46:31;;;;;;;8.43;4.25;;;0.50;99.90;;;;;;5011560;28;20030;-79
2023/01/29 02:49:21;;;;;;;8.55;5.15;;;0.60;99.90;;;;;;4996028;28;20142;-79
2023/01/29 02:51:59;;;;;;;9.93;5.18;;;0.50;99.90;;;;;;4986165;28;20030;-79
2023/01/29 02:54:36;;;;;;;9.93;4.47;;;0.50;99.90;;;;;;4999514;28;20085;-78
2023/01/29 02:57:20;;;;;;;10.10;5.10;;;0.50;99.90;;;;;;4983865;28;20057;-79
2023/01/29 02:59:57;;;;;;;10.15;5.00;;;0.50;99.90;;;;;;4984805;28;20065;-79
2023/01/29 03:02:44;;;;;;;9.82;5.13;;;0.50;99.90;;;;;;4985303;28;20684;-78
2023/01/29 03:05:17;;;;;;;11.88;6.22;;;0.50;99.90;;;;;;4995815;28;20057;-80
2023/01/29 03:07:50;;;;;;;10.05;5.20;;;0.50;99.90;;;;;;4999398;28;20123;-80
2023/01/29 03:10:34;;;;;;;9.98;5.28;;;0.50;99.90;;;;;;5003481;28;20128;-79
2023/01/29 03:13:11;;;;;;;10.10;5.47;;;0.50;99.90;;;;;;4995812;28;20046;-79
2023/01/29 03:15:50;;;;;;;10.23;4.95;;;0.50;99.90;;;;;;5000776;28;20026;-79
2023/01/29 03:19:08;;;;;;;10.15;5.18;;;0.50;99.90;;;;;;4993905;28;20026;-79
2023/01/29 03:21:58;;;;;;;10.93;5.60;;;0.60;99.90;;;;;;5003406;28;20038;-79
2023/01/29 03:33:31;;;;;;;10.43;5.55;;;0.60;99.90;;;;;;4995111;28;20069;-79
2023/01/29 03:36:04;;;;;;;11.18;6.22;;;0.60;99.90;;;;;;5004715;28;20026;-79
2023/01/29 03:38:30;;;;;;;12.88;6.70;;;0.50;99.90;;;;;;4986297;28;20120;-79
2023/01/29 03:41:27;;;;;;;10.88;5.70;;;0.60;99.90;;;;;;4987070;28;20077;-79
2023/01/29 03:43:59;;;;;;;12.15;6.18;;;0.60;99.90;;;;;;4993281;28;20487;-78
2023/01/29 03:46:27;;;;;;;11.57;5.82;;;0.60;99.90;;;;;;4995824;28;20045;-78
2023/01/29 03:49:20;;;;;;;11.38;5.63;;;0.60;99.90;;;;;;5000043;28;20043;-79
2023/01/29 03:51:58;;;;;;;11.70;5.75;;;0.60;99.90;;;;;;4989290;28;20033;-79
2023/01/29 03:54:52;;;;;;;15.07;8.10;;;0.60;99.90;;;;;;4987835;28;20030;-79
2023/01/29 03:57:36;;;;;;;14.02;8.18;;;0.60;99.90;;;;;;5004323;28;20025;-80
2023/01/29 04:00:15;;;;;;;14.30;8.13;;;0.60;99.90;;;;;;5001502;28;20448;-78
2023/01/29 04:03:25;;;;;;;16.05;9.05;;;0.60;99.90;;;;;;5004137;28;20484;-79
2023/01/29 04:06:08;;;;;;;13.07;7.57;;;0.60;99.90;;;;;;4976297;28;20108;-79
2023/01/29 04:08:57;;;;;;;15.07;8.35;;;0.50;99.90;;;;;;5011041;28;20113;-79
2023/01/29 04:11:26;;;;;;;15.27;8.07;;;0.60;99.90;;;;;;4996997;28;20036;-78
2023/01/29 04:13:52;;;;;;;18.02;9.40;;;0.60;99.90;;;;;;4999219;28;20038;-78
2023/01/29 04:16:30;;;;;;;16.95;9.32;;;0.60;99.90;;;;;;4997265;28;20387;-79
2023/01/29 04:19:16;;;;;;;13.20;7.82;;;0.60;99.90;;;;;;4998658;28;20491;-79
2023/01/29 04:21:45;;;;;;;14.45;7.60;;;0.60;99.90;;;;;;4992829;28;20026;-79
2023/01/29 04:24:12;;;;;;;16.05;8.40;;;0.60;99.90;;;;;;4997017;28;20034;-78
2023/01/29 04:27:02;;;;;;;14.80;8.43;;;0.60;99.90;;;;;;4999643;28;20081;-78
2023/01/29 04:29:36;;;;;;;14.30;7.65;;;0.60;99.90;;;;;;4986624;28;20037;-78
2023/01/29 04:32:27;;;;;;;16.70;8.65;;;0.60;99.90;;;;;;5004095;28;20022;-77
2023/01/29 04:35:11;;;;;;;16.73;9.77;;;0.50;99.90;;;;;;4999356;28;20104;-77
2023/01/29 04:37:58;;;;;;;16.70;8.77;;;0.50;99.90;;;;;;5007022;28;20030;-78
2023/01/29 04:40:46;;;;;;;19.17;9.38;;;0.60;99.90;;;;;;5001330;28;20121;-78
2023/01/29 04:43:37;;;;;;;15.70;9.18;;;0.60;99.90;;;;;;5000599;28;20030;-78
2023/01/29 04:46:16;;;;;;;15.77;8.52;;;0.50;99.90;;;;;;5003338;28;20026;-78
2023/01/29 04:49:01;;;;;;;15.43;8.10;;;0.50;99.90;;;;;;4999214;28;20051;-78
2023/01/29 04:51:32;;;;;;;14.80;8.18;;;0.60;99.90;;;;;;4981534;28;20125;-78
2023/01/29 04:54:20;;;;;;;18.98;9.13;;;0.60;99.90;;;;;;4995086;28;20042;-78
2023/01/29 04:57:07;;;;;;;15.48;8.25;;;0.50;99.90;;;;;;4998124;28;20048;-78
2023/01/29 04:59:41;;;;;;;14.93;8.20;;;0.60;99.90;;;;;;4997710;28;20018;-78
2023/01/29 05:02:10;;;;;;;13.90;7.43;;;0.60;99.90;;;;;;4998061;28;20045;-78
2023/01/29 05:04:38;;;;;;;12.05;6.43;;;0.60;99.90;;;;;;5007734;28;20176;-77
2023/01/29 05:07:09;;;;;;;14.35;7.63;;;0.60;99.90;;;;;;4998829;28;20037;-78
2023/01/29 05:09:35;;;;;;;;;;;0.60;99.90;;;;;;4995971;28;20058;-78
2023/01/29 05:12:02;;;;;;;13.50;6.57;;;0.60;99.90;;;;;;5003396;28;19918;-77
2023/01/29 05:14:32;;;;;;;14.90;6.68;;;0.60;99.90;;;;;;4998970;28;20046;-77
2023/01/29 05:17:02;;;;;;;13.02;6.32;;;0.60;99.90;;;;;;5000925;28;20143;-78
2023/01/29 05:19:28;;;;;;;12.20;6.40;;;0.60;99.90;;;;;;5006922;28;20432;-78
2023/01/29 05:21:54;;;;;;;11.65;6.00;;;0.60;99.90;;;;;;4990706;28;20172;-78
2023/01/29 05:24:24;;;;;;;15.77;7.45;;;0.60;99.90;;;;;;4999123;28;20057;-78
2023/01/29 05:29:40;;;;;;;14.65;8.25;;;0.60;99.90;;;;;;4996215;28;20038;-78
2023/01/29 05:32:05;;;;;;;15.38;7.60;;;0.60;99.90;;;;;;4983645;28;20407;-78
2023/01/29 05:34:31;;;;;;;13.40;6.80;;;0.60;99.90;;;;;;4998251;28;20037;-78
2023/01/29 05:36:57;;;;;;;11.93;6.38;;;0.60;99.90;;;;;;4997405;28;20053;-78
2023/01/29 05:39:22;;;;;;;14.05;6.15;;;0.70;99.90;;;;;;4987241;28;20033;-78
2023/01/29 05:41:48;;;;;;;11.07;5.60;;;0.70;99.90;;;;;;5005695;28;20026;-78
2023/01/29 05:44:14;;;;;;;12.10;5.68;;;0.60;99.90;;;;;;4997445;28;20117;-78
2023/01/29 05:46:39;;;;;;;12.35;6.22;;;0.60;99.90;;;;;;4997050;28;20460;-78
2023/01/29 05:49:05;;;;;;;11.85;5.75;;;0.60;99.90;;;;;;5000366;28;20499;-78
2023/01/29 05:51:31;;;;;;;12.07;6.25;;;0.60;99.90;;;;;;4996912;28;20022;-78
2023/01/29 05:53:56;;;;;;;15.82;8.57;;;0.60;99.90;;;;;;4981955;28;20391;-78
2023/01/29 05:56:22;;;;;;;13.35;7.93;;;0.50;99.90;;;;;;5012303;28;20049;-78
2023/01/29 05:58:48;;;;;;;11.90;6.18;;;0.60;99.90;;;;;;4989017;28;20117;-78
2023/01/29 06:01:16;;;;;;;15.48;7.97;;;0.60;99.90;;;;;;4996220;28;20030;-78
2023/01/29 06:03:41;;;;;;;14.95;8.02;;;0.60;99.90;;;;;;5000826;28;20041;-78
2023/01/29 06:06:07;;;;;;;14.68;7.88;;;0.60;99.90;;;;;;4983887;28;20034;-78
2023/01/29 06:08:33;;;;;;;12.80;7.07;;;0.60;99.90;;;;;;4998836;28;20030;-78
2023/01/29 06:10:59;;;;;;;14.30;7.68;;;0.60;99.90;;;;;;5001201;28;20537;-78
2023/01/29 06:13:24;;;;;;;14.98;6.40;;;0.60;99.90;;;;;;5005026;28;20066;-78
2023/01/29 06:15:50;;;;;;;13.07;7.53;;;0.60;99.90;;;;;;5007339;28;20030;-78
2023/01/29 06:18:15;;;;;;;16.23;8.27;;;0.60;99.90;;;;;;4996879;28;20030;-78
2023/01/29 06:20:41;;;;;;;15.15;8.02;;;0.60;99.90;;;;;;4981823;28;20026;-78
2023/01/29 06:23:07;;;;;;;18.52;9.98;;;0.50;99.90;;;;;;5000185;28;20093;-78
2023/01/29 06:25:32;;;;;;;12.80;7.40;;;0.50;99.90;;;;;;4989236;28;20026;-78
2023/01/29 06:27:58;;;;;;;15.60;8.10;;;0.60;99.90;;;;;;4999070;28;20065;-77
2023/01/29 06:30:24;;;;;;;17.88;9.23;;;0.60;99.90;;;;;;5006851;28;20026;-78
2023/01/29 06:32:50;;;;;;;15.25;8.25;;;0.60;99.90;;;;;;5006457;28;20029;-78
2023/01/29 06:35:15;;;;;;;15.32;8.30;;;0.60;99.90;;;;;;4994699;28;20088;-78
2023/01/29 06:37:41;;;;;;;13.77;7.28;;;0.60;99.90;;;;;;4996581;28;20033;-78
2023/01/29 06:40:07;;;;;;;18.00;10.25;;;0.60;99.90;;;;;;5001237;28;20046;-78
2023/01/29 06:42:36;;;;;;;16.83;8.27;;;0.60;99.90;;;;;;4988006;28;20454;-77
2023/01/29 06:45:02;;;;;;;18.55;9.45;;;0.60;99.90;;;;;;5006047;28;20352;-79
2023/01/29 06:47:27;;;;;;;17.35;9.43;;;0.60;99.90;;;;;;4983762;28;20081;-78
2023/01/29 06:49:53;;;;;;;19.45;9.35;;;0.60;99.90;;;;;;4984084;28;20046;-78
2023/01/29 06:52:19;;;;;;;18.25;10.75;;;0.60;99.90;;;;;;4996306;28;20559;-78
2023/01/29 06:54:45;;;;;;;19.38;10.07;;;0.60;99.90;;;;;;5003185;28;20034;-78
2023/01/29 06:57:10;;;;;;;16.17;9.13;;;0.60;99.90;;;;;;4999668;28;20522;-77
2023/01/29 06:59:36;;;;;;;16.08;8.70;;;0.70;99.90;;;;;;4988791;28;20364;-78
2023/01/29 07:02:02;;;;;;;18.02;9.13;;;0.70;99.90;;;;;;5001038;28;20101;-77
2023/01/29 07:04:28;;;;;;;17.40;9.27;;;0.70;99.90;;;;;;4994923;28;20026;-78
2023/01/29 07:06:54;;;;;;;18.55;9.88;;;0.70;99.90;;;;;;4998434;28;20036;-78
2023/01/29 07:09:19;;;;;;;17.15;8.95;;;0.70;99.90;;;;;;4980442;28;20038;-78
2023/01/29 07:11:46;;;;;;;16.33;8.27;;;0.70;99.90;;;;;;4999707;28;20038;-78
2023/01/29 07:14:12;;;;;;;15.90;8.82;;;0.70;99.90;;;;;;4999158;28;20518;-78
2023/01/29 07:16:38;;;;;;;23.38;12.40;;;0.70;99.90;;;;;;4997865;28;20053;-77
2023/01/29 07:19:03;;;;;;;18.63;9.90;;;0.70;99.90;;;;;;4995380;28;20030;-78
2023/01/29 07:21:29;;;;;;;17.35;9.45;;;0.70;99.90;;;;;;4997341;28;20019;-77
2023/01/29 07:23:55;;;;;;;18.42;10.13;;;0.70;99.90;;;;;;4993624;28;20443;-78
2023/01/29 07:26:23;;;;;;;17.27;9.35;;;0.70;99.90;;;;;;5000076;28;20026;-77
2023/01/29 07:28:51;;;;;;;19.05;9.82;;;0.70;99.90;;;;;;5001183;28;20100;-78
2023/01/29 07:31:17;;;;;;;17.70;9.50;;;0.70;99.90;;;;;;5004242;28;20464;-77
2023/01/29 07:33:44;;;;;;;20.08;10.45;;;0.70;99.90;;;;;;5005467;28;20044;-78
2023/01/29 07:36:10;;;;;;;18.58;9.50;;;0.80;99.90;;;;;;4996544;28;20105;-77
2023/01/29 07:38:36;;;;;;;19.15;10.52;;;0.80;99.90;;;;;;4980588;28;20517;-77
2023/01/29 07:41:02;;;;;;;22.73;11.95;;;0.80;99.90;;;;;;4999950;28;20026;-78
2023/01/29 07:43:27;;;;;;;20.30;11.60;;;0.80;99.90;;;;;;4980943;28;20026;-77
2023/01/29 07:45:53;;;;;;;23.63;12.95;;;0.80;99.90;;;;;;5004759;28;20537;-77
2023/01/29 07:48:19;;;;;;;18.42;11.02;;;0.80;99.90;;;;;;4987757;28;20053;-78
2023/01/29 07:50:45;;;;;;;18.52;9.73;;;0.80;99.90;;;;;;4997149;28;20153;-78
2023/01/29 07:53:13;;;;;;;17.80;10.07;;;0.80;99.90;;;;;;4997478;28;20042;-78
2023/01/29 07:55:39;;;;;;;17.50;9.52;;;0.90;99.90;;;;;;4988971;28;20034;-77
2023/01/29 07:58:05;;;;;;;18.80;10.63;;;0.80;99.90;;;;;;4999245;28;20037;-77
2023/01/29 08:00:31;;;;;;;18.63;9.82;;;0.80;99.90;;;;;;4991435;28;20395;-78
2023/01/29 08:03:05;;;;;;;17.08;8.23;;;0.90;99.90;;;;;;4990558;28;20033;-77
2023/01/29 08:05:31;;;;;;;20.55;11.07;;;0.90;99.90;;;;;;5006548;28;20034;-77
2023/01/29 08:07:57;;;;;;;17.08;9.20;;;0.90;99.90;;;;;;5003453;28;20038;-77
2023/01/29 08:10:23;;;;;;;18.02;10.60;;;0.90;99.90;;;;;;4999001;28;20033;-78
2023/01/29 08:12:56;;;;;;;22.52;13.23;;;0.90;99.90;;;;;;4990863;28;20124;-77
2023/01/29 08:15:23;;;;;;;22.40;12.15;;;1.00;99.90;;;;;;4985754;28;20084;-77
2023/01/29 08:17:49;;;;;;;19.35;10.98;;;1.00;99.90;;;;;;4997594;28;20027;-77
2023/01/29 08:20:14;;;;;;;20.05;10.65;;;1.00;99.90;;;;;;4998392;28;20030;-78
2023/01/29 08:22:40;;;;;;;20.13;10.50;;;1.00;99.90;;;;;;4998094;28;20363;-77
2023/01/29 08:25:06;;;;;;;24.52;13.25;;;1.10;99.90;;;;;;4997483;28;20042;-77
2023/01/29 08:27:31;;;;;;;25.08;13.77;;;1.00;99.90;;;;;;4988459;28;20029;-78
2023/01/29 08:29:57;;;;;;;27.27;15.23;;;1.10;99.90;;;;;;5001023;28;20030;-77
2023/01/29 08:32:23;;;;;;;25.23;14.90;;;1.10;99.90;;;;;;4989956;28;20030;-77
2023/01/29 08:34:48;;;;;;;28.40;14.55;;;1.10;99.90;;;;;;5003366;28;20072;-77
2023/01/29 08:37:14;;;;;;;29.67;16.17;;;1.10;99.90;;;;;;5007673;28;20019;-77
2023/01/29 08:39:40;;;;;;;26.20;15.35;;;1.10;99.90;;;;;;5001631;28;20022;-78
2023/01/29 08:42:05;;;;;;;24.05;13.30;;;1.20;99.90;;;;;;5003131;28;20030;-78
2023/01/29 08:44:31;;;;;;;27.33;15.10;;;1.20;99.90;;;;;;4999048;28;20027;-77
2023/01/29 08:46:56;;;;;;;23.27;13.43;;;1.20;99.90;;;;;;4986696;28;20390;-78
2023/01/29 08:49:22;;;;;;;22.20;13.35;;;1.20;99.90;;;;;;4998116;28;20488;-78
2023/01/29 08:51:50;;;;;;;21.70;11.32;;;1.20;99.90;;;;;;4999523;28;20018;-77
2023/01/29 08:54:16;;;;;;;24.13;14.57;;;1.30;99.90;;;;;;5000345;28;20065;-77
2023/01/29 08:56:41;;;;;;;24.15;14.13;;;1.30;99.90;;;;;;5001809;28;20736;-77
2023/01/29 08:59:09;;;;;;;25.50;13.40;;;1.40;99.90;;;;;;4988675;28;20518;-78
2023/01/29 09:01:34;;;;;;;26.58;14.13;;;1.40;99.90;;;;;;5010275;28;20383;-77
2023/01/29 09:04:00;;;;;;;26.95;14.90;;;1.40;99.90;;;;;;4996969;28;20042;-77
2023/01/29 09:06:26;;;;;;;25.98;14.02;;;1.40;99.90;;;;;;5001447;28;20026;-78
2023/01/29 09:08:52;;;;;;;21.70;12.15;;;1.50;99.90;;;;;;4996114;28;20033;-77
2023/01/29 09:11:17;;;;;;;27.88;15.73;;;1.60;99.90;;;;;;5002215;28;20038;-78
2023/01/29 09:13:43;;;;;;;23.85;13.75;;;1.50;99.90;;;;;;4983580;28;20088;-77
2023/01/29 09:16:09;;;;;;;25.65;14.90;;;1.50;99.90;;;;;;4989157;28;20022;-77
2023/01/29 09:18:35;;;;;;;24.50;12.93;;;1.60;99.90;;;;;;4998196;28;20076;-77
2023/01/29 09:21:01;;;;;;;25.40;14.23;;;1.60;99.90;;;;;;4997931;28;20026;-77
2023/01/29 09:23:29;;;;;;;24.50;14.13;;;1.60;99.90;;;;;;5001030;28;20027;-77
2023/01/29 09:25:54;;;;;;;23.55;13.48;;;1.60;99.90;;;;;;4999676;28;20022;-77
2023/01/29 09:28:20;;;;;;;22.15;13.63;;;1.60;99.90;;;;;;4999739;28;20435;-77
2023/01/29 09:30:46;;;;;;;20.52;12.32;;;1.70;99.90;;;;;;5000301;28;20095;-77
2023/01/29 09:33:12;;;;;;;27.67;15.77;;;1.60;99.90;;;;;;5003541;28;20074;-76
2023/01/29 09:35:40;;;;;;;23.15;12.63;;;1.60;99.90;;;;;;5002297;28;20034;-77
2023/01/29 09:38:07;;;;;;;28.88;16.17;;;1.70;99.90;;;;;;5005987;28;20076;-77
2023/01/29 09:40:50;;;;;;;29.30;16.58;;;1.70;99.90;;;;;;4999576;28;20049;-77
2023/01/29 09:43:22;;;;;;;27.95;15.52;;;1.80;99.90;;;;;;4996273;28;20042;-77
2023/01/29 09:45:56;;;;;;;24.08;13.57;;;1.80;99.90;;;;;;4985280;28;20076;-77
2023/01/29 09:48:26;;;;;;;22.83;13.63;;;1.90;99.90;;;;;;4980590;28;20050;-78
2023/01/29 09:50:55;;;;;;;22.65;12.45;;;1.90;99.90;;;;;;5001756;28;20379;-77
2023/01/29 09:53:31;;;;;;;23.38;12.55;;;2.00;99.90;;;;;;5003075;28;20078;-77
2023/01/29 09:56:27;;;;;;;19.90;11.63;;;2.00;99.90;;;;;;4999484;28;20391;-78
2023/01/29 09:58:57;;;;;;;20.05;11.63;;;2.00;99.90;;;;;;4984410;28;20048;-77
2023/01/29 10:01:49;;;;;;;23.50;12.70;;;2.00;99.90;;;;;;4999948;28;20042;-77
2023/01/29 10:04:27;;;;;;;21.70;12.40;;;2.00;99.90;;;;;;4988114;28;20597;-76
2023/01/29 10:07:11;;;;;;;23.02;12.48;;;2.00;99.90;;;;;;5002984;28;20060;-76
2023/01/29 10:09:45;;;;;;;19.40;10.45;;;2.00;99.90;;;;;;5004390;28;20026;-77
2023/01/29 10:12:56;;;;;;;21.08;11.93;;;2.10;99.90;;;;;;4982877;28;20105;-76
2023/01/29 10:15:25;;;;;;;25.80;13.65;;;2.10;99.90;;;;;;4999091;28;20069;-77
2023/01/29 10:18:12;;;;;;;27.63;15.05;;;2.10;99.90;;;;;;4996283;28;20085;-77
2023/01/29 10:20:38;;;;;;;23.10;12.43;;;2.00;99.90;;;;;;4987140;28;20026;-76
2023/01/29 10:23:14;;;;;;;21.67;12.60;;;2.10;99.90;;;;;;5001572;28;20064;-76
2023/01/29 10:25:41;;;;;;;22.30;12.77;;;2.10;99.90;;;;;;4998425;28;20034;-76
2023/01/29 10:28:35;;;;;;;21.92;12.57;;;2.10;99.90;;;;;;5003439;28;20557;-77
2023/01/29 10:31:10;;;;;;;27.25;15.25;;;2.20;99.90;;;;;;4991624;28;20049;-76
2023/01/29 10:33:39;;;;;;;20.00;11.75;;;2.20;99.90;;;;;;4997386;28;20121;-76
2023/01/29 10:36:11;;;;;;;23.67;13.43;;;2.30;99.90;;;;;;4982945;28;20026;-77
2023/01/29 10:38:43;;;;;;;20.50;11.98;;;2.30;99.90;;;;;;4985234;28;20045;-77
2023/01/29 10:41:30;;;;;;;23.85;14.00;;;2.30;99.90;;;;;;4997222;28;20029;-76
2023/01/29 10:44:11;;;;;;;22.20;11.60;;;2.30;99.90;;;;;;5003564;28;20030;-77
2023/01/29 10:46:45;;;;;;;21.48;12.13;;;2.40;99.90;;;;;;4999135;28;20053;-77
2023/01/29 10:49:26;;;;;;;20.52;11.52;;;2.40;99.90;;;;;;5000454;28;20124;-77
2023/01/29 10:52:16;;;;;;;20.08;11.25;;;2.50;99.90;;;;;;4996370;28;20033;-76
2023/01/29 10:54:53;;;;;;;19.92;11.43;;;2.50;99.90;;;;;;4981172;28;20111;-77
2023/01/29 10:57:41;;;;;;;19.17;11.68;;;2.50;99.90;;;;;;4996864;28;20033;-76
2023/01/29 11:00:26;;;;;;;17.92;10.57;;;2.50;99.90;;;;;;4996000;28;20030;-77
2023/01/29 11:02:52;;;;;;;23.30;13.13;;;2.50;99.90;;;;;;4996498;28;20552;-77
2023/01/29 11:05:30;;;;;;;24.35;14.05;;;2.50;99.90;;;;;;4984972;28;20026;-76
2023/01/29 11:08:09;;;;;;;22.05;13.43;;;2.50;99.90;;;;;;4982980;28;20510;-77
2023/01/29 11:10:43;;;;;;;20.85;13.77;;;2.50;99.90;;;;;;4994732;28;20084;-76
2023/01/29 11:13:13;;;;;;;23.70;12.75;;;2.50;99.90;;;;;;4994445;28;20559;-77
2023/01/29 11:15:39;;;;;;;26.15;14.32;;;2.60;99.90;;;;;;4996036;28;20546;-76
2023/01/29 11:18:04;;;;;;;20.98;12.48;;;2.50;99.90;;;;;;4998642;28;20034;-76
2023/01/29 11:20:32;;;;;;;21.13;11.68;;;2.60;99.90;;;;;;4998585;28;20022;-76
2023/01/29 11:22:58;;;;;;;22.13;12.90;;;2.70;99.90;;;;;;4978854;28;20034;-76
2023/01/29 11:25:24;;;;;;;21.30;12.35;;;2.70;99.90;;;;;;5002348;28;20029;-75
2023/01/29 11:28:00;;;;;;;21.58;12.52;;;2.70;99.90;;;;;;4990233;28;20064;-76
2023/01/29 11:30:40;;;;;;;23.30;13.68;;;2.80;99.90;;;;;;5006721;28;20113;-77
2023/01/29 11:33:22;;;;;;;22.10;13.18;;;2.80;99.90;;;;;;5005640;28;20060;-75
2023/01/29 11:35:48;;;;;;;17.45;10.63;;;2.80;99.90;;;;;;5006121;28;20551;-76
2023/01/29 11:38:14;;;;;;;18.95;12.00;;;2.80;99.90;;;;;;5004874;28;20069;-77
2023/01/29 11:40:41;;;;;;;21.33;12.93;;;2.90;99.90;;;;;;5008223;28;20451;-76
2023/01/29 11:43:26;;;;;;;22.10;12.35;;;3.00;99.90;;;;;;4989458;28;20048;-77
2023/01/29 11:45:56;;;;;;;23.73;13.60;;;3.00;99.90;;;;;;4989227;28;20037;-77
2023/01/29 11:48:39;;;;;;;20.90;11.85;;;3.00;99.90;;;;;;4987871;28;20045;-77
2023/01/29 11:51:06;;;;;;;19.52;12.13;;;3.00;99.90;;;;;;5007971;28;20042;-77
2023/01/29 11:53:37;;;;;;;22.13;12.90;;;3.10;99.90;;;;;;4990521;28;20182;-76
2023/01/29 11:56:15;;;;;;;21.88;13.13;;;3.10;99.90;;;;;;4988250;28;20033;-77
2023/01/29 11:58:41;;;;;;;24.20;13.65;;;3.10;99.90;;;;;;5003726;28;20045;-77
2023/01/29 12:01:09;;;;;;;21.77;13.30;;;3.10;99.90;;;;;;4989876;28;20995;-76
2023/01/29 12:03:42;;;;;;;21.67;14.32;;;3.10;99.90;;;;;;5004440;28;20034;-76
2023/01/29 12:06:21;;;;;;;21.88;13.38;;;3.10;99.90;;;;;;5004773;28;20053;-77
2023/01/29 12:08:55;;;;;;;22.90;15.10;;;3.20;99.90;;;;;;5006258;28;20067;-77
2023/01/29 12:11:28;;;;;;;23.33;14.02;;;3.20;99.90;;;;;;4988680;28;20034;-77
2023/01/29 12:14:00;;;;;;;22.50;14.00;;;3.20;99.90;;;;;;5005227;28;20041;-76
2023/01/29 12:16:47;;;;;;;20.35;13.57;;;3.10;99.90;;;;;;5005956;28;20034;-77
2023/01/29 12:19:35;;;;;;;22.88;14.57;;;3.20;99.90;;;;;;4986145;28;20939;-76
2023/01/29 12:22:10;;;;;;;20.58;13.00;;;3.20;99.90;;;;;;5002852;28;20896;-76
2023/01/29 12:24:42;;;;;;;20.77;13.40;;;3.30;99.90;;;;;;5021937;28;20061;-75
2023/01/29 12:27:18;;;;;;;19.55;12.35;;;3.30;99.90;;;;;;4988124;28;20042;-77
2023/01/29 12:30:03;;;;;;;21.08;12.75;;;3.30;99.90;;;;;;5003231;28;20426;-76
2023/01/29 12:32:45;;;;;;;18.83;11.82;;;3.40;99.90;;;;;;4989176;28;20332;-77
2023/01/29 12:35:20;;;;;;;19.23;11.40;;;3.40;99.90;;;;;;5004676;28;20774;-77
2023/01/29 12:38:07;;;;;;;15.90;10.45;;;3.40;99.90;;;;;;4985867;28;20060;-76
2023/01/29 12:40:41;;;;;;;17.27;10.70;;;3.40;99.90;;;;;;4993282;28;20451;-77
2023/01/29 12:43:14;;;;;;;19.27;12.63;;;3.40;99.90;;;;;;4999126;28;20060;-79
2023/01/29 12:45:42;;;;;;;20.45;12.35;;;3.40;99.90;;;;;;4998822;28;20129;-77
2023/01/29 12:48:13;;;;;;;19.50;11.63;;;3.30;99.90;;;;;;5006164;28;20037;-77
2023/01/29 12:50:39;;;;;;;17.67;11.70;;;3.30;99.90;;;;;;4988447;28;20121;-77
2023/01/29 12:53:27;;;;;;;21.60;14.82;;;3.40;99.90;;;;;;4999088;28;20049;-76
2023/01/29 12:56:01;;;;;;;19.73;13.27;;;3.40;99.90;;;;;;5001764;28;20518;-76
2023/01/29 12:58:59;;;;;;;19.80;11.93;;;3.40;99.90;;;;;;5005695;28;20030;-77
2023/01/29 13:01:35;;;;;;;20.42;12.27;;;3.40;99.90;;;;;;4981555;28;20033;-76
2023/01/29 13:04:10;;;;;;;18.75;12.32;;;3.40;99.90;;;;;;4980671;28;20041;-78
2023/01/29 13:06:41;;;;;;;20.83;14.13;;;3.40;99.90;;;;;;5005919;28;20070;-77
2023/01/29 13:09:41;;;;;;;26.15;16.45;;;3.40;99.90;;;;;;4996443;28;20077;-77
2023/01/29 13:12:14;;;;;;;25.15;17.13;;;3.40;99.90;;;;;;4957000;28;20045;-77
2023/01/29 13:14:57;;;;;;;19.10;13.77;;;3.40;99.90;;;;;;4997889;28;20035;-77
2023/01/29 13:17:38;;;;;;;18.80;13.10;;;3.50;99.90;;;;;;4986302;28;20475;-77
2023/01/29 13:20:09;;;;;;;;;;;3.50;99.90;;;;;;4997148;28;20104;-77
2023/01/29 13:22:38;;;;;;;22.45;14.88;;;3.50;99.90;;;;;;4995287;28;19913;-77
2023/01/29 13:25:10;;;;;;;24.90;16.67;;;3.50;99.90;;;;;;5001777;28;20116;-77
2023/01/29 13:27:36;;;;;;;22.38;15.25;;;3.50;99.90;;;;;;4997289;28;20030;-77
2023/01/29 13:30:02;;;;;;;22.88;15.85;;;3.50;99.90;;;;;;5003381;28;20029;-77
2023/01/29 13:32:30;;;;;;;27.75;19.92;;;3.50;99.90;;;;;;4986356;28;20523;-77
2023/01/29 13:35:00;;;;;;;27.33;17.63;;;3.50;99.90;;;;;;4988790;28;20049;-77
2023/01/29 13:37:40;;;;;;;22.85;15.38;;;3.50;99.90;;;;;;4984215;28;20091;-77
2023/01/29 13:40:07;;;;;;;20.58;13.85;;;3.50;99.90;;;;;;4998079;28;20037;-77
2023/01/29 13:42:48;;;;;;;24.40;16.35;;;3.40;99.90;;;;;;4999314;28;20037;-77